createdAt,value
2023-04-07T00:04:47.048Z,12.93
2023-04-07T00:09:50.804Z,10.82
2023-04-07T00:14:54.509Z,12.02
2023-04-07T00:19:59.272Z,9.90
2023-04-07T00:25:02.865Z,28.15
2023-04-07T00:30:08.706Z,8.27
2023-04-07T00:35:14.126Z,15.63
2023-04-07T00:45:21.457Z,10.02
2023-04-07T00:50:26.738Z,13.55
2023-04-07T00:55:30.684Z,8.25
2023-04-07T01:00:42.375Z,8.70
2023-04-07T01:05:59.832Z,11.63
2023-04-07T01:11:08.795Z,10.02
2023-04-07T01:16:18.753Z,10.82
2023-04-07T01:21:29.134Z,7.22
2023-04-07T01:26:34.185Z,11.20
2023-04-07T01:31:41.704Z,6.40
2023-04-07T01:36:46.908Z,9.85
2023-04-07T01:46:59.445Z,8.45
2023-04-07T01:52:04.687Z,7.82
2023-04-07T02:02:13.713Z,10.23
2023-04-07T02:07:22.207Z,8.55
2023-04-07T02:12:29.607Z,9.43
2023-04-07T02:17:52.749Z,11.82
2023-04-07T02:22:57.252Z,10.02
2023-04-07T02:28:01.870Z,8.02
2023-04-07T02:33:06.826Z,13.70
2023-04-07T02:38:10.738Z,7.15
2023-04-07T02:43:16.616Z,13.30
2023-04-07T02:48:21.637Z,8.15
2023-04-07T02:53:25.334Z,9.35
2023-04-07T02:58:29.140Z,7.25
2023-04-07T03:03:34.571Z,11.27
2023-04-07T03:08:49.345Z,11.32
2023-04-07T03:13:53.349Z,13.25
2023-04-07T03:18:58.458Z,10.67
2023-04-07T03:24:02.706Z,7.50
2023-04-07T03:29:06.238Z,12.98
2023-04-07T03:34:12.093Z,17.57
2023-04-07T03:39:16.546Z,9.18
2023-04-07T03:49:26.157Z,18.92
2023-04-07T03:54:31.230Z,8.18
2023-04-07T03:59:36.317Z,8.65
2023-04-07T04:04:43.063Z,8.57
2023-04-07T04:09:48.292Z,7.85
2023-04-07T04:14:52.648Z,9.18
2023-04-07T04:19:58.149Z,14.63
2023-04-07T04:25:13.011Z,8.57
2023-04-07T04:30:21.612Z,10.70
2023-04-07T04:35:37.444Z,9.07
2023-04-07T04:40:50.991Z,15.50
2023-04-07T04:46:00.044Z,27.15
2023-04-07T04:51:07.843Z,11.02
2023-04-07T04:56:12.977Z,9.02
2023-04-07T05:01:20.528Z,14.60
2023-04-07T05:06:40.223Z,24.27
2023-04-07T05:11:48.737Z,15.30
2023-04-07T05:16:54.337Z,16.10
2023-04-07T05:22:03.925Z,12.20
2023-04-07T05:27:12.896Z,10.40
2023-04-07T05:32:19.599Z,14.57
2023-04-07T05:37:24.932Z,11.32
2023-04-07T05:42:28.739Z,13.05
2023-04-07T05:47:34.433Z,16.23
2023-04-07T05:52:39.549Z,22.92
2023-04-07T05:57:54.952Z,17.13
2023-04-07T06:03:01.987Z,18.48
2023-04-07T06:08:10.493Z,15.27
2023-04-07T06:13:14.259Z,15.27
2023-04-07T06:18:20.324Z,13.48
2023-04-07T06:23:25.164Z,17.33
2023-04-07T06:28:28.707Z,13.82
2023-04-07T06:33:32.169Z,14.73
2023-04-07T06:38:36.991Z,13.32
2023-04-07T06:43:41.064Z,13.63
2023-04-07T06:48:45.476Z,11.82
2023-04-07T06:53:50.785Z,11.15
2023-04-07T06:58:54.397Z,12.73
2023-04-07T07:03:58.556Z,9.65
2023-04-07T07:09:04.000Z,13.68
2023-04-07T07:14:07.598Z,9.88
2023-04-07T07:19:11.376Z,10.00
2023-04-07T07:24:17.009Z,8.80
2023-04-07T07:29:20.735Z,14.43
2023-04-07T07:34:24.136Z,9.70
2023-04-07T07:39:30.018Z,8.05
2023-04-07T07:44:33.787Z,8.45
2023-04-07T07:49:37.702Z,7.65
2023-04-07T07:54:42.726Z,11.68
2023-04-07T08:04:50.596Z,9.73
2023-04-07T08:09:55.878Z,11.48
2023-04-07T08:14:59.901Z,9.27
2023-04-07T08:20:04.445Z,6.77
2023-04-07T08:25:09.591Z,7.53
2023-04-07T08:30:13.414Z,6.13
2023-04-07T08:35:16.879Z,9.50
2023-04-07T08:40:21.885Z,9.57
2023-04-07T08:50:30.573Z,6.93
2023-04-07T08:55:37.209Z,7.53
2023-04-07T09:00:42.332Z,8.82
2023-04-07T09:05:46.605Z,7.50
2023-04-07T09:10:51.714Z,7.73
2023-04-07T09:15:56.209Z,7.68
2023-04-07T09:21:01.756Z,7.30
2023-04-07T09:26:24.726Z,5.70
2023-04-07T09:31:46.776Z,6.20
2023-04-07T09:36:50.333Z,7.90
2023-04-07T09:41:55.123Z,5.55
2023-04-07T09:46:59.459Z,5.95
2023-04-07T09:52:07.529Z,6.00
2023-04-07T09:57:13.911Z,5.28
2023-04-07T10:02:17.519Z,7.05
2023-04-07T10:07:21.473Z,5.05
2023-04-07T10:12:27.549Z,7.15
2023-04-07T10:17:32.639Z,4.63
2023-04-07T10:22:37.331Z,5.72
2023-04-07T10:27:50.502Z,5.17
2023-04-07T10:32:55.271Z,3.90
2023-04-07T10:38:17.351Z,6.03
2023-04-07T10:43:41.902Z,4.40
2023-04-07T10:49:09.963Z,7.22
2023-04-07T10:54:17.158Z,6.95
2023-04-07T10:59:27.731Z,7.35
2023-04-07T11:04:37.123Z,7.63
2023-04-07T11:09:40.928Z,11.40
2023-04-07T11:14:46.502Z,6.45
2023-04-07T11:19:52.798Z,7.15
2023-04-07T11:24:56.389Z,12.10
2023-04-07T11:30:01.286Z,8.32
2023-04-07T11:35:07.817Z,11.02
2023-04-07T11:40:12.950Z,7.00
2023-04-07T11:45:20.742Z,7.93
2023-04-07T11:50:41.432Z,12.07
2023-04-07T11:55:44.893Z,10.95
2023-04-07T12:00:57.281Z,8.55
2023-04-07T12:06:01.515Z,9.80
2023-04-07T12:11:06.248Z,8.65
2023-04-07T12:16:11.742Z,9.13
2023-04-07T12:21:15.735Z,7.10
2023-04-07T12:26:20.628Z,4.85
2023-04-07T12:31:28.393Z,6.82
2023-04-07T12:36:32.214Z,5.25
2023-04-07T12:41:38.742Z,5.28
2023-04-07T12:46:43.787Z,6.53
2023-04-07T12:56:51.805Z,4.10
2023-04-07T13:01:57.227Z,4.03
2023-04-07T13:07:03.086Z,4.15
2023-04-07T13:12:06.840Z,5.00
2023-04-07T13:17:12.328Z,3.95
2023-04-07T13:22:18.436Z,6.45
2023-04-07T13:27:25.179Z,6.10
2023-04-07T13:32:30.498Z,5.90
2023-04-07T13:42:37.390Z,5.75
2023-04-07T13:47:42.758Z,5.85
2023-04-07T13:52:47.124Z,6.35
2023-04-07T13:57:51.135Z,6.18
2023-04-07T14:02:57.163Z,5.43
2023-04-07T14:08:00.977Z,6.93
2023-04-07T14:13:04.674Z,5.47
2023-04-07T14:18:09.974Z,9.20
2023-04-07T14:23:16.639Z,10.00
2023-04-07T14:28:24.470Z,9.73
2023-04-07T14:33:29.329Z,6.32
2023-04-07T14:38:35.296Z,5.10
2023-04-07T14:43:39.738Z,5.95
2023-04-07T14:48:46.188Z,6.37
2023-04-07T14:53:55.873Z,5.88
2023-04-07T14:58:59.553Z,4.50
2023-04-07T15:04:04.777Z,4.85
2023-04-07T15:14:12.309Z,5.35
2023-04-07T15:19:17.303Z,6.63
2023-04-07T15:29:25.897Z,8.68
2023-04-07T15:34:31.492Z,8.93
2023-04-07T15:39:35.162Z,5.43
2023-04-07T15:44:40.265Z,6.10
2023-04-07T15:49:45.535Z,5.72
2023-04-07T15:59:52.627Z,5.75
2023-04-07T16:04:57.832Z,10.45
2023-04-07T16:10:01.650Z,7.43
2023-04-07T16:15:06.671Z,9.07
2023-04-07T16:20:14.779Z,5.72
2023-04-07T16:25:18.673Z,4.10
2023-04-07T16:30:22.585Z,5.47
2023-04-07T16:35:27.605Z,5.18
2023-04-07T16:40:31.187Z,4.75
2023-04-07T16:45:34.832Z,5.75
2023-04-07T16:50:43.542Z,6.70
2023-04-07T16:55:47.148Z,10.32
2023-04-07T17:00:50.847Z,13.48
2023-04-07T17:05:56.245Z,10.10
2023-04-07T17:11:01.589Z,6.78
2023-04-07T17:16:05.470Z,7.18
2023-04-07T17:21:10.506Z,9.00
2023-04-07T17:26:16.285Z,8.00
2023-04-07T17:31:22.394Z,7.65
2023-04-07T17:36:29.700Z,10.30
2023-04-07T17:41:34.754Z,10.30
2023-04-07T17:46:38.275Z,7.30
2023-04-07T17:51:44.275Z,9.50
2023-04-07T17:56:49.327Z,9.55
2023-04-07T18:01:53.728Z,7.63
2023-04-07T18:06:59.102Z,11.07
2023-04-07T18:17:06.512Z,19.73
2023-04-07T18:22:11.813Z,8.35
2023-04-07T18:27:15.470Z,17.08
2023-04-07T18:32:19.676Z,9.38
2023-04-07T18:37:25.133Z,9.73
2023-04-07T18:47:32.655Z,11.50
2023-04-07T18:52:37.766Z,7.60
2023-04-07T18:57:41.450Z,9.43
2023-04-07T19:02:45.919Z,7.30
2023-04-07T19:07:51.625Z,11.40
2023-04-07T19:12:55.096Z,9.18
2023-04-07T19:17:58.975Z,9.77
2023-04-07T19:23:03.869Z,9.95
2023-04-07T19:28:07.316Z,9.13
2023-04-07T19:33:11.970Z,11.20
2023-04-07T19:38:17.061Z,14.10
2023-04-07T19:43:20.534Z,11.23
2023-04-07T19:48:24.127Z,14.27
2023-04-07T19:53:29.465Z,16.50
2023-04-07T19:58:34.521Z,11.77
2023-04-07T20:03:39.996Z,10.10
2023-04-07T20:08:44.950Z,10.05
2023-04-07T20:13:49.551Z,14.35
2023-04-07T20:18:53.900Z,13.52
2023-04-07T20:23:59.194Z,11.95
2023-04-07T20:29:03.140Z,13.50
2023-04-07T20:34:06.846Z,13.02
2023-04-07T20:39:11.876Z,17.98
2023-04-07T20:49:19.325Z,10.38
2023-04-07T20:54:24.216Z,15.45
2023-04-07T20:59:28.357Z,28.90
2023-04-07T21:04:32.822Z,15.02
2023-04-07T21:09:37.698Z,15.70
2023-04-07T21:14:41.494Z,11.88
2023-04-07T21:19:45.143Z,13.15
2023-04-07T21:24:52.514Z,17.92
2023-04-07T21:29:56.091Z,14.35
2023-04-07T21:35:00.544Z,16.38
2023-04-07T21:40:07.340Z,13.90
2023-04-07T21:45:12.460Z,15.88
2023-04-07T21:50:16.921Z,10.95
2023-04-07T21:55:22.290Z,10.10
2023-04-07T22:00:26.159Z,12.98
2023-04-07T22:05:30.568Z,11.52
2023-04-07T22:10:36.013Z,11.18
2023-04-07T22:15:39.577Z,14.43
2023-04-07T22:20:43.144Z,12.80
2023-04-07T22:25:49.312Z,16.40
2023-04-07T22:30:53.061Z,13.60
2023-04-07T22:35:56.886Z,13.10
2023-04-07T22:41:01.838Z,11.93
2023-04-07T22:46:05.482Z,20.23
2023-04-07T22:51:09.030Z,17.50
2023-04-07T22:56:13.929Z,16.40
2023-04-07T23:01:18.951Z,16.05
2023-04-07T23:06:22.815Z,15.02
2023-04-07T23:11:27.823Z,13.93
2023-04-07T23:16:31.290Z,18.00
2023-04-07T23:21:34.821Z,18.13
2023-04-07T23:26:39.847Z,19.17
2023-04-07T23:31:43.289Z,20.52
2023-04-07T23:36:46.700Z,20.75
2023-04-07T23:41:52.351Z,21.40
2023-04-07T23:46:55.983Z,23.00
2023-04-07T23:51:59.918Z,24.08
2023-04-07T23:57:04.994Z,22.88
